Time;durP1;ratioP1;P1;durP2;ratioP2;P2;SDS_P1;SDS_P2;PMS_P1;PMS_P2;Temp;Humidity;BMP_temperature;BMP_pressure;BME280_temperature;BME280_humidity;BME280_pressure;Samples;Min_cycle;Max_cycle;Signal;HPM_P1;HPM_P2
2022/03/23 00:00:34;;;;;;;1.45;1.35;;;;;;;;;;5052590;28;20180;-73
2022/03/23 00:03:01;;;;;;;0.70;0.70;;;;;;;;;;5053697;28;20272;-73
2022/03/23 00:05:30;;;;;;;0.70;0.70;;;;;;;;;;5068375;28;20204;-72
2022/03/23 00:07:58;;;;;;;0.70;0.60;;;;;;;;;;5051641;28;20225;-72
2022/03/23 00:10:25;;;;;;;0.80;0.80;;;;;;;;;;5053489;28;20217;-74
2022/03/23 00:12:51;;;;;;;0.70;0.65;;;;;;;;;;5054247;28;20212;-73
2022/03/23 00:15:20;;;;;;;0.80;0.77;;;;;;;;;;5056369;28;20197;-73
2022/03/23 00:17:47;;;;;;;1.08;0.98;;;;;;;;;;5039634;28;20222;-72
2022/03/23 00:20:15;;;;;;;0.70;0.70;;;;;;;;;;5056796;28;20597;-73
2022/03/23 00:22:42;;;;;;;0.70;0.63;;;;;;;;;;5054644;28;20312;-72
2022/03/23 00:25:09;;;;;;;0.70;0.60;;;;;;;;;;5055775;28;20197;-72
2022/03/23 00:27:36;;;;;;;0.80;0.80;;;;;;;;;;5038705;28;20285;-73
2022/03/23 00:30:04;;;;;;;0.70;0.60;;;;;;;;;;5056251;28;20706;-72
2022/03/23 00:32:32;;;;;;;0.70;0.65;;;;;;;;;;5055374;28;20243;-73
2022/03/23 00:35:00;;;;;;;0.80;0.75;;;;;;;;;;5055542;28;20228;-72
2022/03/23 00:37:30;;;;;;;0.70;0.70;;;;;;;;;;5056909;28;20538;-73
2022/03/23 00:39:58;;;;;;;0.82;0.82;;;;;;;;;;5056009;28;20607;-73
2022/03/23 00:42:25;;;;;;;0.70;0.70;;;;;;;;;;5054112;28;20190;-74
2022/03/23 00:44:55;;;;;;;0.73;0.70;;;;;;;;;;5055697;28;20186;-72
2022/03/23 00:47:22;;;;;;;0.80;0.77;;;;;;;;;;5056109;28;20535;-72
2022/03/23 00:49:50;;;;;;;0.70;0.70;;;;;;;;;;5057190;28;20185;-73
2022/03/23 00:52:16;;;;;;;0.90;0.90;;;;;;;;;;5056523;28;20244;-73
2022/03/23 00:54:43;;;;;;;0.70;0.60;;;;;;;;;;5055974;28;20201;-74
2022/03/23 00:57:11;;;;;;;0.70;0.63;;;;;;;;;;5055225;28;20216;-74
2022/03/23 00:59:39;;;;;;;0.80;0.80;;;;;;;;;;5055273;28;20194;-74
2022/03/23 01:02:10;;;;;;;0.70;0.70;;;;;;;;;;5054287;28;20205;-73
2022/03/23 01:04:37;;;;;;;0.80;0.80;;;;;;;;;;5039256;28;20293;-74
2022/03/23 01:07:04;;;;;;;0.80;0.80;;;;;;;;;;5054918;28;20339;-74
2022/03/23 01:09:31;;;;;;;0.70;0.68;;;;;;;;;;5055248;28;20194;-73
2022/03/23 01:11:57;;;;;;;0.70;0.70;;;;;;;;;;5052743;28;20193;-76
2022/03/23 01:14:26;;;;;;;0.70;0.70;;;;;;;;;;5055361;28;20217;-73
2022/03/23 01:16:54;;;;;;;0.60;0.60;;;;;;;;;;5054020;28;20197;-73
2022/03/23 01:19:27;;;;;;;0.80;0.80;;;;;;;;;;5055255;28;20194;-72
2022/03/23 01:21:54;;;;;;;0.80;0.80;;;;;;;;;;5051387;28;20248;-75
2022/03/23 01:24:22;;;;;;;0.70;0.60;;;;;;;;;;5054106;28;20206;-74
2022/03/23 01:26:48;;;;;;;0.82;0.82;;;;;;;;;;5053201;28;20200;-73
2022/03/23 01:29:15;;;;;;;0.70;0.60;;;;;;;;;;5056761;28;20188;-73
2022/03/23 01:31:46;;;;;;;2.00;1.30;;;;;;;;;;5053749;28;20201;-72
2022/03/23 01:34:14;;;;;;;0.80;0.70;;;;;;;;;;5055111;28;20280;-72
2022/03/23 01:36:41;;;;;;;0.70;0.63;;;;;;;;;;5054297;28;20312;-71
2022/03/23 01:39:08;;;;;;;1.10;1.10;;;;;;;;;;5038395;28;20197;-75
2022/03/23 01:41:41;;;;;;;0.70;0.70;;;;;;;;;;5053193;28;20271;-72
2022/03/23 01:44:13;;;;;;;0.70;0.63;;;;;;;;;;5049302;28;20413;-74
2022/03/23 01:47:06;;;;;;;0.80;0.80;;;;;;;;;;5054704;28;20201;-74
2022/03/23 01:49:41;;;;;;;0.80;0.70;;;;;;;;;;5055235;28;20228;-74
2022/03/23 01:52:12;;;;;;;0.80;0.80;;;;;;;;;;5055460;28;20635;-73
2022/03/23 01:54:43;;;;;;;0.70;0.70;;;;;;;;;;5054793;28;20284;-75
2022/03/23 01:57:13;;;;;;;0.90;0.90;;;;;;;;;;5054119;28;20682;-72
2022/03/23 01:59:42;;;;;;;0.70;0.70;;;;;;;;;;5054736;28;20209;-71
2022/03/23 02:02:21;;;;;;;0.70;0.70;;;;;;;;;;5054559;28;20545;-73
2022/03/23 02:05:01;;;;;;;0.77;0.75;;;;;;;;;;5054946;28;20292;-73
2022/03/23 02:07:30;;;;;;;0.80;0.80;;;;;;;;;;5055208;28;20629;-72
2022/03/23 02:09:59;;;;;;;0.70;0.60;;;;;;;;;;5055359;28;20264;-73
2022/03/23 02:12:43;;;;;;;0.80;0.80;;;;;;;;;;5052945;28;20201;-73
2022/03/23 02:15:13;;;;;;;0.70;0.70;;;;;;;;;;5054688;28;20194;-73
2022/03/23 02:17:47;;;;;;;0.80;0.70;;;;;;;;;;5054395;28;20215;-73
2022/03/23 02:20:19;;;;;;;0.90;0.90;;;;;;;;;;5066790;28;20661;-73
2022/03/23 02:22:50;;;;;;;0.70;0.63;;;;;;;;;;5054037;28;20209;-71
2022/03/23 02:25:25;;;;;;;0.80;0.70;;;;;;;;;;5054232;28;20295;-72
2022/03/23 02:27:54;;;;;;;0.70;0.60;;;;;;;;;;5036297;28;20193;-72
2022/03/23 02:30:24;;;;;;;0.70;0.60;;;;;;;;;;5054490;28;20189;-72
2022/03/23 02:32:59;;;;;;;0.70;0.70;;;;;;;;;;5053617;28;20201;-73
2022/03/23 02:35:28;;;;;;;0.70;0.70;;;;;;;;;;5054407;28;20232;-74
2022/03/23 02:37:59;;;;;;;0.70;0.70;;;;;;;;;;5053643;28;20295;-72
2022/03/23 02:40:27;;;;;;;0.75;0.75;;;;;;;;;;5070295;28;20562;-73
2022/03/23 02:42:59;;;;;;;0.80;0.70;;;;;;;;;;5036713;28;20167;-75
2022/03/23 02:45:28;;;;;;;0.70;0.70;;;;;;;;;;5053660;28;20609;-72
2022/03/23 02:47:59;;;;;;;0.80;0.70;;;;;;;;;;5053525;28;20231;-74
2022/03/23 02:50:27;;;;;;;0.80;0.70;;;;;;;;;;5068963;28;20189;-73
2022/03/23 03:04:07;;;;;;;0.82;0.82;;;;;;;;;;5053584;28;20662;-72
2022/03/23 03:06:33;;;;;;;0.98;0.95;;;;;;;;;;5052086;28;20262;-75
2022/03/23 03:09:00;;;;;;;0.70;0.70;;;;;;;;;;5052481;28;20259;-72
2022/03/23 03:11:28;;;;;;;0.70;0.60;;;;;;;;;;5052302;28;20723;-72
2022/03/23 03:13:55;;;;;;;0.80;0.80;;;;;;;;;;5052728;28;20185;-72
2022/03/23 03:16:22;;;;;;;0.80;0.80;;;;;;;;;;5054865;28;20182;-72
2022/03/23 03:18:51;;;;;;;0.70;0.70;;;;;;;;;;5053035;28;20204;-72
2022/03/23 03:21:18;;;;;;;0.70;0.70;;;;;;;;;;5052075;28;20201;-73
2022/03/23 03:23:46;;;;;;;0.70;0.70;;;;;;;;;;5052659;28;20188;-74
2022/03/23 03:26:13;;;;;;;0.80;0.80;;;;;;;;;;5053459;28;20186;-73
2022/03/23 03:28:42;;;;;;;0.70;0.70;;;;;;;;;;5053445;28;20174;-73
2022/03/23 03:35:02;;;;;;;0.80;0.77;;;;;;;;;;5051510;28;20185;-74
2022/03/23 03:37:29;;;;;;;0.77;0.70;;;;;;;;;;5032956;28;20850;-73
2022/03/23 03:39:59;;;;;;;0.80;0.70;;;;;;;;;;5069584;28;20240;-74
2022/03/23 03:42:27;;;;;;;0.70;0.70;;;;;;;;;;5052892;28;20190;-75
2022/03/23 03:44:57;;;;;;;0.70;0.70;;;;;;;;;;5052395;28;20220;-74
2022/03/23 03:47:24;;;;;;;0.70;0.70;;;;;;;;;;5054500;28;20185;-75
2022/03/23 03:49:51;;;;;;;0.70;0.65;;;;;;;;;;5052712;28;20220;-71
2022/03/23 03:52:18;;;;;;;0.75;0.68;;;;;;;;;;5053762;28;20245;-73
2022/03/23 03:54:45;;;;;;;0.70;0.70;;;;;;;;;;5049420;28;20200;-73
2022/03/23 03:57:11;;;;;;;1.50;1.40;;;;;;;;;;5052658;28;20307;-73
2022/03/23 03:59:38;;;;;;;0.80;0.73;;;;;;;;;;5052841;28;20255;-72
2022/03/23 04:02:06;;;;;;;0.80;0.70;;;;;;;;;;5053729;28;20642;-73
2022/03/23 04:04:33;;;;;;;0.70;0.60;;;;;;;;;;5052364;28;20213;-72
2022/03/23 04:07:00;;;;;;;0.80;0.80;;;;;;;;;;5052644;28;20287;-73
2022/03/23 04:09:26;;;;;;;0.90;0.90;;;;;;;;;;5053709;28;20213;-73
2022/03/23 04:11:53;;;;;;;0.80;0.80;;;;;;;;;;5052295;28;20239;-73
2022/03/23 04:14:19;;;;;;;0.80;0.70;;;;;;;;;;5050142;28;20674;-73
2022/03/23 04:16:46;;;;;;;0.70;0.68;;;;;;;;;;5034944;28;20195;-72
2022/03/23 04:19:14;;;;;;;0.70;0.68;;;;;;;;;;5052299;28;20292;-74
2022/03/23 04:21:41;;;;;;;0.70;0.70;;;;;;;;;;5052172;28;20278;-72
2022/03/23 04:24:08;;;;;;;0.80;0.80;;;;;;;;;;5053465;28;20190;-72
2022/03/23 04:26:35;;;;;;;0.70;0.68;;;;;;;;;;5053294;28;20548;-75
2022/03/23 04:29:02;;;;;;;0.70;0.60;;;;;;;;;;5052281;28;20284;-72
2022/03/23 04:31:28;;;;;;;0.70;0.63;;;;;;;;;;5036086;28;20198;-74
2022/03/23 04:33:55;;;;;;;0.70;0.60;;;;;;;;;;5053580;28;20210;-73
2022/03/23 04:36:24;;;;;;;0.70;0.60;;;;;;;;;;5047809;28;20229;-73
2022/03/23 04:38:51;;;;;;;0.70;0.70;;;;;;;;;;5052418;28;20796;-72
2022/03/23 04:41:17;;;;;;;0.70;0.60;;;;;;;;;;5051462;28;20677;-73
2022/03/23 04:43:44;;;;;;;0.70;0.60;;;;;;;;;;5053403;28;20547;-73
2022/03/23 04:46:12;;;;;;;0.80;0.80;;;;;;;;;;5044164;28;20194;-72
2022/03/23 04:48:39;;;;;;;0.77;0.73;;;;;;;;;;5053089;28;20186;-74
2022/03/23 04:51:06;;;;;;;0.80;0.70;;;;;;;;;;5035457;28;20650;-72
2022/03/23 04:53:36;;;;;;;0.90;0.90;;;;;;;;;;5052381;28;20200;-72
2022/03/23 04:56:04;;;;;;;0.70;0.70;;;;;;;;;;5037799;28;20198;-72
2022/03/23 04:58:32;;;;;;;0.70;0.60;;;;;;;;;;5035372;28;20304;-73
2022/03/23 05:01:00;;;;;;;0.80;0.73;;;;;;;;;;5054502;28;20276;-74
2022/03/23 05:03:28;;;;;;;1.00;1.00;;;;;;;;;;5055864;28;20193;-73
2022/03/23 05:05:55;;;;;;;0.70;0.70;;;;;;;;;;5072781;28;20245;-73
2022/03/23 05:08:22;;;;;;;1.00;0.93;;;;;;;;;;5055613;28;20583;-74
2022/03/23 05:10:50;;;;;;;0.80;0.80;;;;;;;;;;5056395;28;20181;-74
2022/03/23 05:13:17;;;;;;;0.70;0.70;;;;;;;;;;5054224;28;20220;-73
2022/03/23 05:15:44;;;;;;;0.70;0.70;;;;;;;;;;5053623;28;20208;-73
2022/03/23 05:18:12;;;;;;;0.70;0.70;;;;;;;;;;5054999;28;20208;-73
2022/03/23 05:20:39;;;;;;;0.70;0.63;;;;;;;;;;5055260;28;20201;-73
2022/03/23 05:23:07;;;;;;;0.80;0.80;;;;;;;;;;5057235;28;20681;-73
2022/03/23 05:25:35;;;;;;;0.90;0.90;;;;;;;;;;5054300;28;20272;-73
2022/03/23 05:28:08;;;;;;;0.70;0.60;;;;;;;;;;5053932;28;20654;-72
2022/03/23 05:30:35;;;;;;;0.70;0.60;;;;;;;;;;5053543;28;20220;-72
2022/03/23 05:33:01;;;;;;;0.70;0.70;;;;;;;;;;5054604;28;20213;-72
2022/03/23 05:35:29;;;;;;;0.80;0.80;;;;;;;;;;5055293;28;20268;-74
2022/03/23 05:37:56;;;;;;;0.70;0.63;;;;;;;;;;5055965;28;20682;-73
2022/03/23 05:40:23;;;;;;;0.80;0.80;;;;;;;;;;5054860;28;20235;-74
2022/03/23 05:42:51;;;;;;;0.70;0.60;;;;;;;;;;5050794;28;20280;-73
2022/03/23 05:45:23;;;;;;;0.80;0.80;;;;;;;;;;5036268;28;20175;-74
2022/03/23 05:47:53;;;;;;;0.70;0.63;;;;;;;;;;5054191;28;20185;-74
2022/03/23 05:50:22;;;;;;;0.70;0.60;;;;;;;;;;5054358;28;20212;-74
2022/03/23 05:52:49;;;;;;;3.17;2.97;;;;;;;;;;5055375;28;20770;-73
2022/03/23 05:55:16;;;;;;;0.70;0.60;;;;;;;;;;5054190;28;20199;-73
2022/03/23 05:57:45;;;;;;;0.75;0.70;;;;;;;;;;5053739;28;20210;-73
2022/03/23 06:00:13;;;;;;;0.70;0.63;;;;;;;;;;5054642;28;20198;-73
2022/03/23 06:02:41;;;;;;;0.70;0.70;;;;;;;;;;5054484;28;20177;-72
2022/03/23 06:05:09;;;;;;;1.25;1.17;;;;;;;;;;5017912;28;20210;-73
2022/03/23 06:07:36;;;;;;;0.70;0.60;;;;;;;;;;5049416;28;20209;-73
2022/03/23 06:10:03;;;;;;;0.70;0.70;;;;;;;;;;5052880;28;20204;-72
2022/03/23 06:12:30;;;;;;;0.80;0.80;;;;;;;;;;5054427;28;20264;-72
2022/03/23 06:14:57;;;;;;;0.70;0.65;;;;;;;;;;5054494;28;20215;-73
2022/03/23 06:17:25;;;;;;;0.80;0.80;;;;;;;;;;5054925;28;20184;-73
2022/03/23 06:19:54;;;;;;;0.80;0.80;;;;;;;;;;5055339;28;20182;-73
2022/03/23 06:22:20;;;;;;;0.70;0.70;;;;;;;;;;5053765;28;20221;-73
2022/03/23 06:24:52;;;;;;;0.70;0.70;;;;;;;;;;5053385;28;20227;-74
2022/03/23 06:27:20;;;;;;;0.70;0.60;;;;;;;;;;5036710;28;20597;-74
2022/03/23 06:29:46;;;;;;;0.80;0.75;;;;;;;;;;5055788;28;20201;-74
2022/03/23 06:32:14;;;;;;;0.70;0.60;;;;;;;;;;5052906;28;20663;-73
2022/03/23 06:34:42;;;;;;;0.88;0.88;;;;;;;;;;5053843;28;20232;-73
2022/03/23 06:37:10;;;;;;;0.80;0.80;;;;;;;;;;5054480;28;20205;-73
2022/03/23 06:39:37;;;;;;;0.80;0.77;;;;;;;;;;5033935;28;20712;-72
2022/03/23 06:42:04;;;;;;;0.75;0.70;;;;;;;;;;5040306;28;20197;-73
2022/03/23 06:44:31;;;;;;;0.80;0.77;;;;;;;;;;5042422;28;20225;-72
2022/03/23 06:46:58;;;;;;;0.80;0.70;;;;;;;;;;5052345;28;20970;-72
2022/03/23 06:49:25;;;;;;;1.45;1.35;;;;;;;;;;5069786;28;20186;-72
2022/03/23 06:51:52;;;;;;;0.73;0.70;;;;;;;;;;5069619;28;20216;-72
2022/03/23 06:54:20;;;;;;;0.80;0.70;;;;;;;;;;5053998;28;20244;-73
2022/03/23 06:56:50;;;;;;;1.13;1.02;;;;;;;;;;5052487;28;20201;-72
2022/03/23 06:59:17;;;;;;;0.80;0.77;;;;;;;;;;5052803;28;20198;-72
2022/03/23 07:01:43;;;;;;;1.00;1.00;;;;;;;;;;5053128;28;20193;-74
2022/03/23 07:04:10;;;;;;;0.80;0.80;;;;;;;;;;5053149;28;20228;-74
2022/03/23 07:06:37;;;;;;;0.70;0.60;;;;;;;;;;5052496;28;20221;-74
2022/03/23 07:11:50;;;;;;;0.80;0.70;;;;;;;;;;5054008;28;20658;-74
2022/03/23 07:14:17;;;;;;;2.17;2.05;;;;;;;;;;5052561;28;20189;-72
2022/03/23 07:16:46;;;;;;;0.80;0.70;;;;;;;;;;5053374;28;20178;-74
2022/03/23 07:19:13;;;;;;;1.00;0.90;;;;;;;;;;5069633;28;20202;-73
2022/03/23 07:21:40;;;;;;;0.80;0.73;;;;;;;;;;5050667;28;20251;-71
2022/03/23 07:24:07;;;;;;;0.70;0.70;;;;;;;;;;5052471;28;20665;-72
2022/03/23 07:26:35;;;;;;;0.70;0.70;;;;;;;;;;5053494;28;20667;-73
2022/03/23 07:29:04;;;;;;;0.70;0.70;;;;;;;;;;5055557;28;20198;-73
2022/03/23 07:31:30;;;;;;;0.80;0.80;;;;;;;;;;5055782;28;20225;-72
2022/03/23 07:33:57;;;;;;;0.70;0.60;;;;;;;;;;5054798;28;20204;-72
2022/03/23 07:36:24;;;;;;;0.90;0.80;;;;;;;;;;5056305;28;20812;-73
2022/03/23 07:38:55;;;;;;;1.47;1.37;;;;;;;;;;5056282;28;20554;-72
2022/03/23 07:41:21;;;;;;;0.70;0.60;;;;;;;;;;5053589;28;20446;-75
2022/03/23 07:43:49;;;;;;;3.83;1.30;;;;;;;;;;5056611;28;20440;-73
2022/03/23 07:46:18;;;;;;;0.70;0.60;;;;;;;;;;5053301;28;20436;-73
2022/03/23 07:49:09;;;;;;;0.70;0.70;;;;;;;;;;5041019;28;20944;-74
2022/03/23 07:52:04;;;;;;;2.50;1.33;;;;;;;;;;5055216;28;20439;-73
2022/03/23 07:54:34;;;;;;;1.00;0.90;;;;;;;;;;5052918;28;20448;-72
2022/03/23 07:57:01;;;;;;;0.80;0.80;;;;;;;;;;5052430;28;20453;-72
2022/03/23 07:59:28;;;;;;;0.70;0.60;;;;;;;;;;5068285;28;20454;-73
2022/03/23 08:01:58;;;;;;;0.80;0.77;;;;;;;;;;5051712;28;20455;-72
2022/03/23 08:04:25;;;;;;;0.70;0.60;;;;;;;;;;5051477;28;20436;-74
2022/03/23 08:06:53;;;;;;;0.80;0.70;;;;;;;;;;5052725;28;20964;-73
2022/03/23 08:09:20;;;;;;;0.90;0.83;;;;;;;;;;5052274;28;20446;-73
2022/03/23 08:11:47;;;;;;;0.80;0.80;;;;;;;;;;5052425;28;20443;-72
2022/03/23 08:14:14;;;;;;;0.80;0.80;;;;;;;;;;5051716;28;20466;-74
2022/03/23 08:16:43;;;;;;;1.07;0.97;;;;;;;;;;5052229;28;20446;-73
2022/03/23 08:19:12;;;;;;;1.10;1.00;;;;;;;;;;5053464;28;20967;-74
2022/03/23 08:21:39;;;;;;;0.73;0.70;;;;;;;;;;5035155;28;20471;-75
2022/03/23 08:24:06;;;;;;;0.90;0.80;;;;;;;;;;5051630;28;20555;-74
2022/03/23 08:26:35;;;;;;;1.00;0.90;;;;;;;;;;5052941;28;20468;-74
2022/03/23 08:29:01;;;;;;;0.80;0.80;;;;;;;;;;5052295;28;20480;-75
2022/03/23 08:31:29;;;;;;;1.00;0.90;;;;;;;;;;5054607;28;20435;-74
2022/03/23 08:33:58;;;;;;;0.90;0.83;;;;;;;;;;5055287;28;20495;-74
2022/03/23 08:36:26;;;;;;;6.43;1.63;;;;;;;;;;5056459;28;20470;-74
2022/03/23 08:38:55;;;;;;;2.07;1.87;;;;;;;;;;5055909;28;20956;-74
2022/03/23 08:41:22;;;;;;;2.30;2.03;;;;;;;;;;5055101;28;20900;-73
2022/03/23 08:43:49;;;;;;;2.07;1.30;;;;;;;;;;5056148;28;20598;-76
2022/03/23 08:46:15;;;;;;;1.20;1.10;;;;;;;;;;5054989;28;20478;-75
2022/03/23 08:48:45;;;;;;;1.17;1.10;;;;;;;;;;5039596;28;20431;-74
2022/03/23 08:51:12;;;;;;;1.30;1.10;;;;;;;;;;5056829;28;20518;-74
2022/03/23 08:53:42;;;;;;;3.63;1.40;;;;;;;;;;5055480;28;20422;-74
2022/03/23 08:56:13;;;;;;;0.80;0.80;;;;;;;;;;5056132;28;20426;-74
2022/03/23 08:58:49;;;;;;;0.80;0.60;;;;;;;;;;5055611;28;20453;-73
2022/03/23 09:01:15;;;;;;;1.20;1.10;;;;;;;;;;5042380;28;20415;-74
2022/03/23 09:03:45;;;;;;;4.10;2.70;;;;;;;;;;5049190;28;20435;-74
2022/03/23 09:06:12;;;;;;;1.90;1.80;;;;;;;;;;5054606;28;20471;-74
2022/03/23 09:08:38;;;;;;;2.83;2.63;;;;;;;;;;5055160;28;20969;-74
2022/03/23 09:11:08;;;;;;;2.30;1.43;;;;;;;;;;5054941;28;20545;-74
2022/03/23 09:13:35;;;;;;;3.47;3.27;;;;;;;;;;5050533;28;20419;-74
2022/03/23 09:16:02;;;;;;;1.73;1.63;;;;;;;;;;5054095;28;20439;-74
2022/03/23 09:18:29;;;;;;;7.10;2.30;;;;;;;;;;5055378;28;20431;-74
2022/03/23 09:20:59;;;;;;;1.00;0.90;;;;;;;;;;5055463;28;20524;-74
2022/03/23 09:23:31;;;;;;;1.67;1.37;;;;;;;;;;5055448;28;20551;-74
2022/03/23 09:26:01;;;;;;;0.80;0.80;;;;;;;;;;5070743;28;20459;-75
2022/03/23 09:28:31;;;;;;;0.70;0.60;;;;;;;;;;5054254;28;20447;-75
2022/03/23 09:31:00;;;;;;;1.47;1.37;;;;;;;;;;5037659;28;20452;-75
2022/03/23 09:33:28;;;;;;;1.37;1.27;;;;;;;;;;5055908;28;20463;-76
2022/03/23 09:35:56;;;;;;;1.70;1.10;;;;;;;;;;5038612;28;20464;-73
2022/03/23 09:38:24;;;;;;;2.90;2.70;;;;;;;;;;5056304;28;20415;-74
2022/03/23 09:40:52;;;;;;;1.77;1.13;;;;;;;;;;5054334;28;20439;-74
2022/03/23 09:43:20;;;;;;;1.83;1.73;;;;;;;;;;5052250;28;20539;-74
2022/03/23 09:45:48;;;;;;;1.83;1.70;;;;;;;;;;5070656;28;20447;-75
2022/03/23 09:48:17;;;;;;;1.90;1.80;;;;;;;;;;5070951;28;20861;-75
2022/03/23 09:50:45;;;;;;;1.67;1.17;;;;;;;;;;5054577;28;20955;-75
2022/03/23 09:53:13;;;;;;;2.47;1.90;;;;;;;;;;5054025;28;20451;-74
2022/03/23 09:55:42;;;;;;;1.40;1.17;;;;;;;;;;5055778;28;20440;-75
2022/03/23 09:58:09;;;;;;;2.03;1.83;;;;;;;;;;5054262;28;20440;-76
2022/03/23 10:00:39;;;;;;;1.57;1.47;;;;;;;;;;5053249;28;20459;-75
2022/03/23 10:03:31;;;;;;;0.97;0.87;;;;;;;;;;5050492;28;20444;-75
2022/03/23 10:06:08;;;;;;;2.30;1.27;;;;;;;;;;5046901;28;20471;-75
2022/03/23 10:09:02;;;;;;;1.40;1.20;;;;;;;;;;5055261;28;20415;-74
2022/03/23 10:11:47;;;;;;;1.97;1.10;;;;;;;;;;5030927;28;20832;-74
2022/03/23 10:14:34;;;;;;;1.67;1.57;;;;;;;;;;5053782;28;20460;-74
2022/03/23 10:17:23;;;;;;;2.63;2.13;;;;;;;;;;5048037;28;20459;-75
2022/03/23 10:19:54;;;;;;;1.03;0.93;;;;;;;;;;5052107;28;21002;-75
2022/03/23 10:22:25;;;;;;;3.90;3.13;;;;;;;;;;5054995;28;20456;-74
2022/03/23 10:25:06;;;;;;;1.60;1.50;;;;;;;;;;5052755;28;20459;-73
2022/03/23 10:27:33;;;;;;;1.67;1.53;;;;;;;;;;5053474;28;20498;-75
2022/03/23 10:30:00;;;;;;;2.10;1.67;;;;;;;;;;5054367;28;20823;-74
2022/03/23 10:32:32;;;;;;;1.07;0.97;;;;;;;;;;5054069;28;20452;-74
2022/03/23 10:35:04;;;;;;;1.10;0.77;;;;;;;;;;5052405;28;20978;-74
2022/03/23 10:37:33;;;;;;;1.60;1.50;;;;;;;;;;5053750;28;20506;-76
2022/03/23 10:40:02;;;;;;;1.57;1.40;;;;;;;;;;5053496;28;20798;-76
2022/03/23 10:42:31;;;;;;;1.83;1.33;;;;;;;;;;5054636;28;20466;-74
2022/03/23 10:45:06;;;;;;;1.77;1.50;;;;;;;;;;5069207;28;20454;-76
2022/03/23 10:47:33;;;;;;;1.63;1.53;;;;;;;;;;5053013;28;20951;-75
2022/03/23 10:50:11;;;;;;;1.83;1.27;;;;;;;;;;5053596;28;20527;-74
2022/03/23 10:52:52;;;;;;;0.90;0.90;;;;;;;;;;5054429;28;20459;-74
2022/03/23 10:55:20;;;;;;;0.80;0.70;;;;;;;;;;5036168;28;20445;-74
2022/03/23 11:02:00;;;;;;;2.30;1.63;;;;;;;;;;5051988;28;20416;-75
2022/03/23 11:04:30;;;;;;;3.00;2.80;;;;;;;;;;5054410;28;20431;-75
2022/03/23 11:06:57;;;;;;;1.33;0.93;;;;;;;;;;5036502;28;20560;-75
2022/03/23 11:18:07;;;;;;;0.87;0.73;;;;;;;;;;5053158;28;20535;-74
2022/03/23 11:20:41;;;;;;;0.97;0.90;;;;;;;;;;5053856;28;20460;-74
2022/03/23 11:23:15;;;;;;;2.87;1.90;;;;;;;;;;5053860;28;20448;-74
2022/03/23 11:25:48;;;;;;;3.27;3.00;;;;;;;;;;5054975;28;20954;-74
2022/03/23 11:28:15;;;;;;;2.70;2.03;;;;;;;;;;5050910;28;20458;-75
2022/03/23 11:30:50;;;;;;;0.80;0.80;;;;;;;;;;5053464;28;20419;-75
2022/03/23 11:33:22;;;;;;;0.70;0.60;;;;;;;;;;5052329;28;20964;-74
2022/03/23 11:35:49;;;;;;;1.63;1.53;;;;;;;;;;5052853;28;20443;-73
2022/03/23 11:38:17;;;;;;;1.63;1.53;;;;;;;;;;5052901;28;20524;-73
2022/03/23 11:40:45;;;;;;;4.60;1.17;;;;;;;;;;5052697;28;20460;-75
2022/03/23 11:43:14;;;;;;;1.60;1.50;;;;;;;;;;5051292;28;20460;-75
2022/03/23 11:46:02;;;;;;;2.13;1.67;;;;;;;;;;5052803;28;20464;-75
2022/03/23 11:48:36;;;;;;;1.10;0.93;;;;;;;;;;5053484;28;20439;-75
2022/03/23 11:51:11;;;;;;;0.80;0.73;;;;;;;;;;5053832;28;20456;-75
2022/03/23 11:53:54;;;;;;;2.00;1.50;;;;;;;;;;5053646;28;20448;-75
2022/03/23 11:56:24;;;;;;;0.80;0.80;;;;;;;;;;5052114;28;20448;-74
2022/03/23 11:58:54;;;;;;;0.80;0.80;;;;;;;;;;5052667;28;20387;-75
2022/03/23 12:01:29;;;;;;;1.10;1.00;;;;;;;;;;5052362;28;20970;-75
2022/03/23 12:04:01;;;;;;;1.20;1.10;;;;;;;;;;5032460;28;20420;-76
2022/03/23 12:06:37;;;;;;;1.03;0.93;;;;;;;;;;5053489;28;20437;-74
2022/03/23 12:09:25;;;;;;;1.27;1.17;;;;;;;;;;5052173;28;20415;-75
2022/03/23 12:11:52;;;;;;;2.70;1.73;;;;;;;;;;5051218;28;20456;-74
2022/03/23 12:14:25;;;;;;;1.23;1.13;;;;;;;;;;5052870;28;20606;-76
2022/03/23 12:17:03;;;;;;;1.47;1.37;;;;;;;;;;5051105;28;20846;-75
2022/03/23 12:19:56;;;;;;;1.33;1.17;;;;;;;;;;5035850;28;20858;-74
2022/03/23 12:22:37;;;;;;;1.10;1.00;;;;;;;;;;5033868;28;20471;-76
2022/03/23 12:25:08;;;;;;;1.00;1.00;;;;;;;;;;5035853;28;20440;-76
2022/03/23 12:27:39;;;;;;;1.20;1.10;;;;;;;;;;5035311;28;20466;-77
2022/03/23 12:30:12;;;;;;;2.27;2.17;;;;;;;;;;5052234;28;20506;-76
2022/03/23 12:32:39;;;;;;;0.93;0.87;;;;;;;;;;5050591;28;20456;-76
2022/03/23 12:35:06;;;;;;;1.17;1.07;;;;;;;;;;5068611;28;20418;-77
2022/03/23 12:37:37;;;;;;;0.80;0.73;;;;;;;;;;5052475;28;20525;-77
2022/03/23 12:40:06;;;;;;;1.80;1.67;;;;;;;;;;5050601;28;20567;-76
2022/03/23 12:42:34;;;;;;;0.80;0.70;;;;;;;;;;5052355;28;20447;-77
2022/03/23 12:45:18;;;;;;;1.43;1.17;;;;;;;;;;5051858;28;20435;-76
2022/03/23 12:47:51;;;;;;;1.20;1.00;;;;;;;;;;5045758;28;20437;-76
2022/03/23 12:58:48;;;;;;;0.90;0.90;;;;;;;;;;5051210;28;20440;-77
2022/03/23 13:01:17;;;;;;;1.93;1.53;;;;;;;;;;5050563;28;20499;-76
2022/03/23 13:03:52;;;;;;;0.90;0.90;;;;;;;;;;5051846;28;20448;-75
2022/03/23 13:06:20;;;;;;;0.80;0.77;;;;;;;;;;5052234;28;20452;-77
2022/03/23 13:08:50;;;;;;;1.00;0.90;;;;;;;;;;5051801;28;20487;-77
2022/03/23 13:11:20;;;;;;;2.80;2.60;;;;;;;;;;5052559;28;20404;-77
2022/03/23 13:13:52;;;;;;;1.23;1.13;;;;;;;;;;5051934;28;20801;-78
2022/03/23 13:16:21;;;;;;;0.70;0.70;;;;;;;;;;5051449;28;20928;-77
2022/03/23 13:18:53;;;;;;;0.80;0.80;;;;;;;;;;5056784;28;20466;-78
2022/03/23 13:21:21;;;;;;;0.80;0.73;;;;;;;;;;5054512;28;20512;-77
2022/03/23 13:23:48;;;;;;;1.00;0.90;;;;;;;;;;5056032;28;20456;-76
2022/03/23 13:26:16;;;;;;;0.80;0.80;;;;;;;;;;5056588;28;20387;-76
2022/03/23 13:28:43;;;;;;;0.80;0.80;;;;;;;;;;5055783;28;20511;-75
2022/03/23 13:31:12;;;;;;;0.80;0.70;;;;;;;;;;5054820;28;20495;-75
2022/03/23 13:33:41;;;;;;;2.13;2.03;;;;;;;;;;5054824;28;20802;-75
2022/03/23 13:36:09;;;;;;;1.20;1.10;;;;;;;;;;5055823;28;20998;-78
2022/03/23 13:38:37;;;;;;;0.90;0.80;;;;;;;;;;5055861;28;20397;-76
2022/03/23 13:43:53;;;;;;;1.00;0.90;;;;;;;;;;5062312;28;20553;-77
2022/03/23 13:46:20;;;;;;;1.20;1.03;;;;;;;;;;5054668;28;20382;-76
2022/03/23 13:48:59;;;;;;;1.80;1.70;;;;;;;;;;5054795;28;20493;-76
2022/03/23 13:51:27;;;;;;;1.00;0.90;;;;;;;;;;5052053;28;20430;-76
2022/03/23 13:53:58;;;;;;;0.90;0.90;;;;;;;;;;5044597;28;20435;-76
2022/03/23 13:56:26;;;;;;;2.63;1.00;;;;;;;;;;5053995;28;20949;-77
2022/03/23 13:58:53;;;;;;;3.53;3.33;;;;;;;;;;5055323;28;20743;-76
2022/03/23 14:01:19;;;;;;;1.40;1.30;;;;;;;;;;5053415;28;21046;-77
2022/03/23 14:03:46;;;;;;;1.00;0.90;;;;;;;;;;5054532;28;20426;-75
2022/03/23 14:06:15;;;;;;;0.80;0.80;;;;;;;;;;5054231;28;20439;-75
2022/03/23 14:08:52;;;;;;;2.03;0.90;;;;;;;;;;5054229;28;20810;-76
2022/03/23 14:11:20;;;;;;;1.73;0.90;;;;;;;;;;5070714;28;20464;-75
2022/03/23 14:13:50;;;;;;;0.80;0.70;;;;;;;;;;5043058;28;20452;-76
2022/03/23 14:16:19;;;;;;;0.93;0.87;;;;;;;;;;5054536;28;20507;-76
2022/03/23 14:18:48;;;;;;;1.00;1.00;;;;;;;;;;5048122;28;20451;-76
2022/03/23 14:21:22;;;;;;;0.70;0.70;;;;;;;;;;5054449;28;20450;-75
2022/03/23 14:23:51;;;;;;;0.80;0.70;;;;;;;;;;5054899;28;20418;-76
2022/03/23 14:26:29;;;;;;;0.77;0.70;;;;;;;;;;5051172;28;20426;-76
2022/03/23 14:28:56;;;;;;;1.60;1.50;;;;;;;;;;5052762;28;20422;-76
2022/03/23 14:31:23;;;;;;;1.30;1.10;;;;;;;;;;5055093;28;20448;-76
2022/03/23 14:33:50;;;;;;;1.03;0.97;;;;;;;;;;5055600;28;20446;-76
2022/03/23 14:36:22;;;;;;;0.73;0.70;;;;;;;;;;5057745;28;20795;-75
2022/03/23 14:38:50;;;;;;;1.77;1.60;;;;;;;;;;5066646;28;20474;-75
2022/03/23 14:41:20;;;;;;;0.80;0.80;;;;;;;;;;5056594;28;20452;-76
2022/03/23 14:43:48;;;;;;;1.50;1.40;;;;;;;;;;5056854;28;20447;-75
2022/03/23 14:46:21;;;;;;;1.37;1.27;;;;;;;;;;5053513;28;20439;-75
2022/03/23 14:49:08;;;;;;;1.10;1.00;;;;;;;;;;5056782;28;20420;-76
2022/03/23 14:51:37;;;;;;;0.80;0.80;;;;;;;;;;5052319;28;21008;-75
2022/03/23 14:54:06;;;;;;;1.17;1.07;;;;;;;;;;5052245;28;20447;-76
2022/03/23 14:56:34;;;;;;;1.63;1.53;;;;;;;;;;5053172;28;20423;-75
2022/03/23 14:59:00;;;;;;;1.73;1.63;;;;;;;;;;5053460;28;20475;-76
2022/03/23 15:01:28;;;;;;;1.63;1.40;;;;;;;;;;5052677;28;20937;-74
2022/03/23 15:03:55;;;;;;;2.10;1.27;;;;;;;;;;5053576;28;20880;-74
2022/03/23 15:14:42;;;;;;;1.80;1.70;;;;;;;;;;5053135;28;20447;-74
2022/03/23 15:17:11;;;;;;;0.90;0.90;;;;;;;;;;5055356;28;20436;-75
2022/03/23 15:19:38;;;;;;;1.10;1.00;;;;;;;;;;5052035;28;20471;-74
2022/03/23 15:22:07;;;;;;;1.00;0.80;;;;;;;;;;5036022;28;20951;-74
2022/03/23 15:24:36;;;;;;;1.10;1.00;;;;;;;;;;5046807;28;20476;-73
2022/03/23 15:27:04;;;;;;;1.23;1.13;;;;;;;;;;5054014;28;20919;-72
2022/03/23 15:29:31;;;;;;;1.37;1.27;;;;;;;;;;5053936;28;20516;-72
2022/03/23 15:31:59;;;;;;;1.57;1.23;;;;;;;;;;5068331;28;20449;-72
2022/03/23 15:34:27;;;;;;;1.23;1.13;;;;;;;;;;5051738;28;20452;-73
2022/03/23 15:36:55;;;;;;;1.47;1.37;;;;;;;;;;5052612;28;20517;-72
2022/03/23 15:39:23;;;;;;;1.10;1.00;;;;;;;;;;5052369;28;20486;-74
2022/03/23 15:41:53;;;;;;;0.80;0.80;;;;;;;;;;5052005;28;20556;-74
2022/03/23 15:44:22;;;;;;;0.80;0.80;;;;;;;;;;5051826;28;20430;-73
2022/03/23 15:46:51;;;;;;;0.70;0.70;;;;;;;;;;5062490;28;20473;-75